Time;durP1;ratioP1;P1;durP2;ratioP2;P2;SDS_P1;SDS_P2;PMS_P1;PMS_P2;Temp;Humidity;BMP_temperature;BMP_pressure;BME280_temperature;BME280_humidity;BME280_pressure;Samples;Min_cycle;Max_cycle;Signal;HPM_P1;HPM_P2
2023/10/26 00:00:15;;;;;;;62.45;23.92;;;;;;;;;;1035611;28;20053;-66
2023/10/26 00:01:06;;;;;;;63.45;23.85;;;;;;;;;;1036546;28;20061;-66
2023/10/26 00:01:40;;;;;;;61.72;24.27;;;;;;;;;;1036506;28;20395;-66
2023/10/26 00:02:11;;;;;;;59.38;24.95;;;;;;;;;;1038485;28;20588;-66
2023/10/26 00:02:41;;;;;;;59.13;23.90;;;;;;;;;;1036148;28;20736;-65
2023/10/26 00:03:12;;;;;;;55.03;23.67;;;;;;;;;;1037751;28;20421;-66
2023/10/26 00:03:42;;;;;;;60.55;23.85;;;;;;;;;;1037327;28;20057;-66
2023/10/26 00:04:13;;;;;;;57.10;25.10;;;;;;;;;;1037738;28;20947;-65
2023/10/26 00:04:44;;;;;;;59.63;24.83;;;;;;;;;;1036834;28;20076;-66
2023/10/26 00:05:14;;;;;;;62.20;23.98;;;;;;;;;;1036274;28;20655;-65
2023/10/26 00:05:45;;;;;;;51.83;24.50;;;;;;;;;;1036859;28;20053;-65
2023/10/26 00:06:15;;;;;;;55.70;24.08;;;;;;;;;;1038233;28;20431;-65
2023/10/26 00:06:46;;;;;;;65.55;25.83;;;;;;;;;;1037431;28;20553;-66
2023/10/26 00:07:16;;;;;;;56.78;23.67;;;;;;;;;;1037524;28;20056;-65
2023/10/26 00:07:47;;;;;;;56.30;24.08;;;;;;;;;;1036918;28;20111;-66
2023/10/26 00:08:18;;;;;;;50.88;23.75;;;;;;;;;;1038021;28;20041;-66
2023/10/26 00:08:48;;;;;;;57.78;24.00;;;;;;;;;;1036357;28;20053;-65
2023/10/26 00:09:19;;;;;;;58.40;23.90;;;;;;;;;;1037268;28;20068;-65
2023/10/26 00:09:49;;;;;;;62.00;24.58;;;;;;;;;;1037829;28;20132;-66
2023/10/26 00:10:20;;;;;;;67.20;25.00;;;;;;;;;;1037241;28;20053;-66
2023/10/26 00:10:51;;;;;;;57.70;22.90;;;;;;;;;;1037313;28;20084;-65
2023/10/26 00:11:21;;;;;;;60.53;23.42;;;;;;;;;;1038187;28;20448;-66
2023/10/26 00:11:52;;;;;;;59.33;24.60;;;;;;;;;;1037303;28;20656;-66
2023/10/26 00:12:23;;;;;;;62.40;24.10;;;;;;;;;;1036189;28;20136;-65
2023/10/26 00:12:53;;;;;;;54.65;23.95;;;;;;;;;;1037768;28;20600;-65
2023/10/26 00:13:24;;;;;;;59.08;25.05;;;;;;;;;;1037575;28;20049;-66
2023/10/26 00:13:54;;;;;;;65.13;24.88;;;;;;;;;;1036936;28;20083;-65
2023/10/26 00:14:25;;;;;;;58.55;23.50;;;;;;;;;;1036797;28;20052;-65
2023/10/26 00:14:55;;;;;;;59.60;23.70;;;;;;;;;;1036451;28;20049;-67
2023/10/26 00:15:26;;;;;;;58.35;23.92;;;;;;;;;;1041484;28;20050;-66
2023/10/26 00:15:57;;;;;;;54.65;23.80;;;;;;;;;;1040738;28;20136;-66
2023/10/26 00:16:28;;;;;;;61.08;24.52;;;;;;;;;;1045676;28;20059;-66
2023/10/26 00:16:58;;;;;;;63.55;25.33;;;;;;;;;;1044686;28;20049;-65
2023/10/26 00:17:29;;;;;;;58.25;23.52;;;;;;;;;;1037577;28;20191;-66
2023/10/26 00:17:59;;;;;;;58.08;22.73;;;;;;;;;;1036885;28;20128;-63
2023/10/26 00:18:29;;;;;;;55.30;23.25;;;;;;;;;;1037617;28;20064;-64
2023/10/26 00:19:01;;;;;;;62.13;24.02;;;;;;;;;;1036781;28;20421;-64
2023/10/26 00:19:32;;;;;;;63.92;25.38;;;;;;;;;;1037353;28;20564;-64
2023/10/26 00:20:05;;;;;;;57.35;23.23;;;;;;;;;;1036733;28;20041;-65
2023/10/26 00:20:36;;;;;;;62.35;23.63;;;;;;;;;;1037418;28;20046;-65
2023/10/26 00:21:06;;;;;;;55.63;24.10;;;;;;;;;;1036883;28;20045;-64
2023/10/26 00:21:37;;;;;;;56.95;23.60;;;;;;;;;;1035638;28;20397;-65
2023/10/26 00:22:07;;;;;;;61.05;23.58;;;;;;;;;;1037633;28;20740;-64
2023/10/26 00:22:38;;;;;;;59.30;23.98;;;;;;;;;;1036681;28;20049;-65
2023/10/26 00:23:08;;;;;;;55.28;23.10;;;;;;;;;;1038422;28;20072;-64
2023/10/26 00:23:39;;;;;;;56.28;22.90;;;;;;;;;;1037136;28;20099;-65
2023/10/26 00:24:09;;;;;;;48.53;23.67;;;;;;;;;;1036550;28;20157;-65
2023/10/26 00:24:40;;;;;;;65.25;24.33;;;;;;;;;;1036730;28;20073;-65
2023/10/26 00:25:11;;;;;;;65.28;24.48;;;;;;;;;;1037439;28;20144;-65
2023/10/26 00:25:41;;;;;;;56.00;23.70;;;;;;;;;;1037168;28;20049;-64
2023/10/26 00:26:12;;;;;;;55.60;24.38;;;;;;;;;;1037008;28;20053;-65
2023/10/26 00:26:42;;;;;;;56.63;22.73;;;;;;;;;;1037110;28;20041;-65
2023/10/26 00:27:14;;;;;;;51.80;25.10;;;;;;;;;;1037323;28;20045;-65
2023/10/26 00:27:44;;;;;;;51.22;22.05;;;;;;;;;;1035543;28;20402;-65
2023/10/26 00:28:15;;;;;;;54.28;23.00;;;;;;;;;;1037397;28;20500;-65
2023/10/26 00:28:45;;;;;;;56.08;23.67;;;;;;;;;;1032425;28;21548;-64
2023/10/26 00:29:16;;;;;;;58.30;24.10;;;;;;;;;;1037412;28;20057;-64
2023/10/26 00:29:47;;;;;;;51.47;23.45;;;;;;;;;;1036672;28;20140;-64
2023/10/26 00:30:17;;;;;;;52.13;23.65;;;;;;;;;;1036783;28;20046;-65
2023/10/26 00:30:48;;;;;;;55.40;23.52;;;;;;;;;;1037086;28;20049;-66
2023/10/26 00:31:19;;;;;;;53.03;22.63;;;;;;;;;;1036693;28;20053;-64
2023/10/26 00:31:49;;;;;;;51.17;22.48;;;;;;;;;;1034048;28;20415;-65
2023/10/26 00:32:20;;;;;;;50.67;22.80;;;;;;;;;;1036293;28;20053;-65
2023/10/26 00:32:50;;;;;;;52.53;22.65;;;;;;;;;;1037590;28;20057;-64
2023/10/26 00:33:21;;;;;;;48.88;22.25;;;;;;;;;;1036719;28;20057;-64
2023/10/26 00:33:52;;;;;;;60.25;23.08;;;;;;;;;;1040780;28;20087;-65
2023/10/26 00:34:22;;;;;;;53.97;23.52;;;;;;;;;;1040748;28;20071;-65
2023/10/26 00:34:53;;;;;;;48.33;22.40;;;;;;;;;;1042012;28;20057;-65
2023/10/26 00:35:23;;;;;;;54.63;23.55;;;;;;;;;;1044728;28;20079;-65
2023/10/26 00:35:55;;;;;;;50.50;22.98;;;;;;;;;;1037240;28;20463;-64
2023/10/26 00:36:26;;;;;;;45.28;22.60;;;;;;;;;;1035258;28;20136;-65
2023/10/26 00:36:56;;;;;;;46.67;22.65;;;;;;;;;;1037004;28;20405;-64
2023/10/26 00:37:27;;;;;;;50.60;22.15;;;;;;;;;;1036747;28;20088;-64
2023/10/26 00:37:57;;;;;;;50.63;23.50;;;;;;;;;;1038327;28;20053;-64
2023/10/26 00:38:28;;;;;;;46.28;21.67;;;;;;;;;;1036251;28;20788;-65
2023/10/26 00:38:59;;;;;;;56.33;22.90;;;;;;;;;;1035953;28;20060;-64
2023/10/26 00:39:29;;;;;;;50.75;22.75;;;;;;;;;;1036974;28;20053;-65
2023/10/26 00:40:00;;;;;;;48.47;23.05;;;;;;;;;;1037411;28;20132;-65
2023/10/26 00:40:30;;;;;;;43.92;21.95;;;;;;;;;;1036453;28;20041;-64
2023/10/26 00:41:01;;;;;;;53.97;22.85;;;;;;;;;;1037355;28;20049;-64
2023/10/26 00:41:32;;;;;;;47.20;22.17;;;;;;;;;;1037079;28;20119;-65
2023/10/26 00:42:02;;;;;;;45.60;21.67;;;;;;;;;;1036495;28;21116;-65
2023/10/26 00:42:33;;;;;;;47.05;22.30;;;;;;;;;;1036170;28;20042;-64
2023/10/26 00:43:04;;;;;;;44.00;21.20;;;;;;;;;;1036464;28;20057;-64
2023/10/26 00:43:35;;;;;;;45.97;23.42;;;;;;;;;;1036919;28;20448;-64
2023/10/26 00:44:05;;;;;;;46.50;21.75;;;;;;;;;;1036869;28;20620;-65
2023/10/26 00:44:36;;;;;;;46.88;20.73;;;;;;;;;;1034253;28;20057;-65
2023/10/26 00:45:07;;;;;;;48.83;22.20;;;;;;;;;;1036653;28;20064;-65
2023/10/26 00:45:38;;;;;;;47.33;21.23;;;;;;;;;;1037189;28;20390;-65
2023/10/26 00:46:10;;;;;;;47.40;22.15;;;;;;;;;;1037950;28;20060;-64
2023/10/26 00:46:41;;;;;;;46.75;22.17;;;;;;;;;;1035857;28;20592;-65
2023/10/26 00:47:13;;;;;;;50.45;22.27;;;;;;;;;;1036137;28;20676;-65
2023/10/26 00:47:43;;;;;;;48.92;22.60;;;;;;;;;;1035091;28;20057;-65
2023/10/26 00:48:14;;;;;;;48.83;21.27;;;;;;;;;;1037379;28;20057;-64
2023/10/26 00:48:44;;;;;;;42.33;21.42;;;;;;;;;;1036396;28;20144;-64
2023/10/26 00:49:17;;;;;;;45.55;21.42;;;;;;;;;;1035808;28;20091;-66
2023/10/26 00:49:48;;;;;;;41.72;20.63;;;;;;;;;;1036566;28;20059;-63
2023/10/26 00:50:19;;;;;;;42.38;20.85;;;;;;;;;;1036939;28;20049;-65
2023/10/26 00:50:49;;;;;;;44.50;22.48;;;;;;;;;;1037181;28;20144;-65
2023/10/26 00:51:21;;;;;;;41.28;20.77;;;;;;;;;;1037718;28;20049;-65
2023/10/26 00:51:55;;;;;;;38.38;21.00;;;;;;;;;;1035259;28;20060;-65
2023/10/26 00:52:26;;;;;;;50.22;22.08;;;;;;;;;;1036958;28;20079;-63
2023/10/26 00:52:57;;;;;;;45.10;21.77;;;;;;;;;;1036189;28;20060;-65
2023/10/26 00:53:28;;;;;;;42.38;21.08;;;;;;;;;;1036849;28;20394;-64
2023/10/26 00:53:59;;;;;;;38.75;19.92;;;;;;;;;;1037344;28;20049;-64
2023/10/26 00:54:31;;;;;;;43.67;20.23;;;;;;;;;;1036794;28;20069;-66
2023/10/26 00:55:04;;;;;;;41.63;21.58;;;;;;;;;;1036468;28;20128;-65
2023/10/26 00:55:35;;;;;;;40.53;20.42;;;;;;;;;;1036606;28;20168;-65
2023/10/26 00:56:07;;;;;;;43.72;21.92;;;;;;;;;;1037470;28;20108;-66
2023/10/26 00:56:37;;;;;;;47.30;21.98;;;;;;;;;;1036015;28;20089;-65
2023/10/26 00:57:09;;;;;;;41.72;20.88;;;;;;;;;;1038516;28;20073;-65
2023/10/26 00:57:40;;;;;;;46.75;23.17;;;;;;;;;;1036077;28;20128;-65
2023/10/26 00:58:11;;;;;;;41.38;20.27;;;;;;;;;;1036215;28;20056;-65
2023/10/26 00:58:42;;;;;;;44.33;21.33;;;;;;;;;;1037237;28;20391;-65
2023/10/26 00:59:14;;;;;;;41.25;20.90;;;;;;;;;;1036758;28;20056;-65
2023/10/26 00:59:48;;;;;;;43.53;21.73;;;;;;;;;;1034377;28;20871;-64
2023/10/26 01:00:18;;;;;;;41.08;21.73;;;;;;;;;;1035273;28;20049;-63
2023/10/26 01:00:49;;;;;;;39.47;20.52;;;;;;;;;;1035276;28;20053;-65
2023/10/26 01:01:20;;;;;;;35.90;19.80;;;;;;;;;;1036094;28;20064;-66
2023/10/26 01:01:51;;;;;;;42.35;20.75;;;;;;;;;;1034734;28;20209;-64
2023/10/26 01:02:23;;;;;;;39.05;20.77;;;;;;;;;;1036718;28;20053;-65
2023/10/26 01:02:54;;;;;;;41.28;20.63;;;;;;;;;;1036993;28;20096;-65
2023/10/26 01:03:29;;;;;;;42.67;21.30;;;;;;;;;;1035365;28;20060;-65
2023/10/26 01:04:00;;;;;;;39.15;20.42;;;;;;;;;;1036953;28;20068;-65
2023/10/26 01:04:30;;;;;;;43.95;21.17;;;;;;;;;;1034716;28;20053;-65
2023/10/26 01:05:01;;;;;;;40.78;20.95;;;;;;;;;;1038120;28;20454;-64
2023/10/26 01:05:32;;;;;;;37.63;19.58;;;;;;;;;;1036088;28;20050;-65
2023/10/26 01:06:03;;;;;;;39.08;20.90;;;;;;;;;;1037931;28;20065;-65
2023/10/26 01:06:33;;;;;;;44.22;23.05;;;;;;;;;;1036157;28;20634;-64
2023/10/26 01:07:04;;;;;;;44.15;20.73;;;;;;;;;;1038104;28;20099;-64
2023/10/26 01:07:34;;;;;;;43.83;20.13;;;;;;;;;;1036967;28;20730;-65
2023/10/26 01:08:05;;;;;;;38.60;20.02;;;;;;;;;;1038304;28;20417;-64
2023/10/26 01:08:36;;;;;;;43.13;20.80;;;;;;;;;;1034842;28;20071;-65
2023/10/26 01:09:08;;;;;;;38.00;20.05;;;;;;;;;;1036893;28;20042;-65
2023/10/26 01:09:38;;;;;;;36.17;19.90;;;;;;;;;;1034293;28;20739;-65
2023/10/26 01:10:10;;;;;;;42.67;20.80;;;;;;;;;;1036783;28;20564;-65
2023/10/26 01:10:41;;;;;;;37.92;20.25;;;;;;;;;;1036148;28;20084;-65
2023/10/26 01:11:12;;;;;;;46.03;21.75;;;;;;;;;;1037192;28;20680;-64
2023/10/26 01:11:43;;;;;;;40.85;20.33;;;;;;;;;;1036817;28;20045;-65
2023/10/26 01:12:14;;;;;;;38.78;20.45;;;;;;;;;;1037057;28;20049;-65
2023/10/26 01:12:45;;;;;;;38.28;20.65;;;;;;;;;;1037563;28;20608;-64
2023/10/26 01:13:17;;;;;;;39.60;19.60;;;;;;;;;;1037387;28;20073;-65
2023/10/26 01:13:49;;;;;;;42.42;21.05;;;;;;;;;;1034980;28;20058;-65
2023/10/26 01:14:19;;;;;;;43.67;20.30;;;;;;;;;;1035993;28;20041;-65
2023/10/26 01:14:50;;;;;;;38.75;20.48;;;;;;;;;;1035038;28;20131;-65
2023/10/26 01:15:23;;;;;;;44.35;21.33;;;;;;;;;;1034976;28;20068;-65
2023/10/26 01:15:54;;;;;;;37.03;20.52;;;;;;;;;;1037266;28;20064;-65
2023/10/26 01:16:24;;;;;;;37.90;19.98;;;;;;;;;;1036296;28;20677;-66
2023/10/26 01:16:55;;;;;;;36.60;20.63;;;;;;;;;;1037247;28;20512;-65
2023/10/26 01:17:25;;;;;;;35.17;20.05;;;;;;;;;;1036369;28;20049;-65
2023/10/26 01:17:56;;;;;;;50.38;20.95;;;;;;;;;;1037611;28;20045;-66
2023/10/26 01:18:27;;;;;;;39.92;20.83;;;;;;;;;;1035781;28;20054;-66
2023/10/26 01:19:02;;;;;;;36.22;19.15;;;;;;;;;;1037660;28;20050;-65
2023/10/26 01:19:39;;;;;;;35.53;18.75;;;;;;;;;;1037036;28;20060;-65
2023/10/26 01:20:15;;;;;;;37.45;19.30;;;;;;;;;;1034355;28;20103;-65
2023/10/26 01:20:46;;;;;;;40.88;19.40;;;;;;;;;;1036644;28;20053;-65
2023/10/26 01:21:17;;;;;;;36.33;18.88;;;;;;;;;;1037135;28;20069;-65
2023/10/26 01:21:51;;;;;;;35.92;19.35;;;;;;;;;;1034630;28;20433;-65
2023/10/26 01:22:28;;;;;;;35.97;19.63;;;;;;;;;;1037063;28;20065;-64
2023/10/26 01:22:59;;;;;;;37.58;19.55;;;;;;;;;;1036619;28;20057;-65
2023/10/26 01:23:29;;;;;;;32.05;18.00;;;;;;;;;;1036463;28;20045;-64
2023/10/26 01:24:00;;;;;;;38.13;19.65;;;;;;;;;;1037436;28;20050;-65
2023/10/26 01:24:30;;;;;;;40.15;19.75;;;;;;;;;;1036406;28;23307;-66
2023/10/26 01:25:01;;;;;;;39.97;19.60;;;;;;;;;;1037105;28;20053;-65
2023/10/26 01:25:32;;;;;;;37.78;18.88;;;;;;;;;;1036472;28;20054;-64
2023/10/26 01:26:02;;;;;;;34.92;19.95;;;;;;;;;;1037725;28;20077;-64
2023/10/26 01:26:33;;;;;;;43.45;21.25;;;;;;;;;;1035487;28;20075;-65
2023/10/26 01:27:04;;;;;;;50.80;20.83;;;;;;;;;;1036193;28;20041;-65
2023/10/26 01:27:37;;;;;;;42.95;20.40;;;;;;;;;;1036361;28;20527;-65
2023/10/26 01:28:07;;;;;;;35.88;18.63;;;;;;;;;;1036794;28;20110;-65
2023/10/26 01:28:38;;;;;;;40.80;19.75;;;;;;;;;;1035245;28;20096;-64
2023/10/26 01:29:08;;;;;;;35.90;19.35;;;;;;;;;;1038102;28;20107;-65
2023/10/26 01:29:39;;;;;;;38.70;19.90;;;;;;;;;;1035671;28;20538;-65
2023/10/26 01:30:10;;;;;;;35.08;20.15;;;;;;;;;;1036488;28;20106;-65
2023/10/26 01:30:41;;;;;;;37.45;18.60;;;;;;;;;;1035185;28;20045;-65
2023/10/26 01:31:19;;;;;;;33.17;19.02;;;;;;;;;;1038005;28;20056;-64
2023/10/26 01:31:49;;;;;;;33.80;18.05;;;;;;;;;;1035139;28;20133;-64
2023/10/26 01:32:20;;;;;;;41.65;17.88;;;;;;;;;;1036471;28;20054;-65
2023/10/26 01:32:50;;;;;;;31.85;17.85;;;;;;;;;;1036585;28;20050;-65
2023/10/26 01:33:21;;;;;;;34.13;17.17;;;;;;;;;;1038020;28;20079;-64
2023/10/26 01:33:51;;;;;;;32.13;17.52;;;;;;;;;;1035863;28;20057;-64
2023/10/26 01:34:22;;;;;;;27.67;16.95;;;;;;;;;;1036378;28;20052;-65
2023/10/26 01:34:53;;;;;;;28.15;16.90;;;;;;;;;;1036870;28;20054;-65
2023/10/26 01:35:24;;;;;;;31.85;17.77;;;;;;;;;;1034879;28;21026;-66
2023/10/26 01:35:54;;;;;;;33.20;18.08;;;;;;;;;;1035949;28;20065;-65
2023/10/26 01:36:25;;;;;;;31.83;16.92;;;;;;;;;;1036442;28;20148;-64
2023/10/26 01:36:56;;;;;;;30.63;16.83;;;;;;;;;;1038189;28;20065;-64
2023/10/26 01:37:26;;;;;;;29.23;16.50;;;;;;;;;;1036754;28;20140;-65
2023/10/26 01:37:57;;;;;;;33.55;16.63;;;;;;;;;;1035904;28;20367;-64
2023/10/26 01:38:27;;;;;;;27.13;16.10;;;;;;;;;;1036305;28;20053;-64
2023/10/26 01:39:00;;;;;;;27.88;17.85;;;;;;;;;;1037280;28;20057;-65
2023/10/26 01:39:31;;;;;;;28.67;16.25;;;;;;;;;;1035911;28;20040;-64
2023/10/26 01:40:01;;;;;;;31.52;16.05;;;;;;;;;;1037921;28;20076;-64
2023/10/26 01:40:32;;;;;;;32.58;16.75;;;;;;;;;;1036707;28;20480;-65
2023/10/26 01:41:04;;;;;;;29.25;16.90;;;;;;;;;;1036579;28;20075;-64
2023/10/26 01:41:35;;;;;;;25.88;15.45;;;;;;;;;;1035969;28;20046;-65
2023/10/26 01:42:09;;;;;;;29.10;15.48;;;;;;;;;;1037315;28;20057;-64
2023/10/26 01:42:40;;;;;;;27.83;16.23;;;;;;;;;;1034000;28;20129;-65
2023/10/26 01:43:10;;;;;;;28.15;15.77;;;;;;;;;;1037319;28;20060;-65
2023/10/26 01:43:41;;;;;;;25.15;16.25;;;;;;;;;;1035656;28;20187;-64
2023/10/26 01:44:12;;;;;;;32.70;16.88;;;;;;;;;;1037837;28;20421;-65
2023/10/26 01:44:43;;;;;;;29.50;15.93;;;;;;;;;;1035841;28;20068;-64
2023/10/26 01:45:14;;;;;;;28.75;16.50;;;;;;;;;;1036349;28;20033;-65
2023/10/26 01:45:44;;;;;;;35.13;16.67;;;;;;;;;;1036791;28;20053;-64
2023/10/26 01:46:15;;;;;;;28.05;16.25;;;;;;;;;;1036416;28;20573;-64
2023/10/26 01:46:45;;;;;;;32.00;16.88;;;;;;;;;;1037692;28;20160;-65
2023/10/26 01:47:17;;;;;;;34.72;16.00;;;;;;;;;;1035460;28;20044;-64
2023/10/26 01:47:48;;;;;;;26.75;16.42;;;;;;;;;;1036897;28;20053;-65
2023/10/26 01:48:18;;;;;;;30.33;16.23;;;;;;;;;;1036242;28;20049;-65
2023/10/26 01:48:49;;;;;;;25.33;15.88;;;;;;;;;;1036645;28;20053;-65
2023/10/26 01:49:19;;;;;;;30.23;16.05;;;;;;;;;;1037327;28;20061;-65
2023/10/26 01:49:50;;;;;;;30.40;15.90;;;;;;;;;;1037047;28;20065;-65
2023/10/26 01:50:20;;;;;;;28.52;16.42;;;;;;;;;;1036242;28;20176;-65
2023/10/26 01:50:51;;;;;;;31.38;15.95;;;;;;;;;;1036000;28;20107;-65
2023/10/26 01:51:21;;;;;;;30.23;16.00;;;;;;;;;;1036337;28;20127;-66
2023/10/26 01:51:52;;;;;;;29.48;14.85;;;;;;;;;;1036938;28;20064;-65
2023/10/26 01:52:22;;;;;;;29.38;15.20;;;;;;;;;;1036619;28;21293;-65
2023/10/26 01:52:53;;;;;;;51.50;15.95;;;;;;;;;;1037225;28;20138;-65
2023/10/26 01:53:25;;;;;;;34.78;14.95;;;;;;;;;;1035525;28;20128;-65
2023/10/26 01:53:56;;;;;;;47.22;15.30;;;;;;;;;;1036228;28;20061;-65
2023/10/26 01:54:26;;;;;;;35.25;15.82;;;;;;;;;;1037547;28;20045;-65
2023/10/26 01:54:57;;;;;;;53.22;15.15;;;;;;;;;;1036796;28;20594;-64
2023/10/26 01:55:28;;;;;;;44.85;14.98;;;;;;;;;;1036455;28;20421;-64
2023/10/26 01:55:58;;;;;;;35.50;14.48;;;;;;;;;;1036727;28;20618;-65
2023/10/26 01:56:30;;;;;;;40.83;16.08;;;;;;;;;;1037376;28;20592;-66
2023/10/26 01:57:01;;;;;;;47.58;15.15;;;;;;;;;;1036471;28;20049;-65
2023/10/26 01:57:33;;;;;;;61.72;14.60;;;;;;;;;;1037404;28;20801;-65
2023/10/26 01:58:03;;;;;;;78.82;14.70;;;;;;;;;;1036013;28;20548;-64
2023/10/26 01:58:34;;;;;;;101.38;15.52;;;;;;;;;;1035993;28;20060;-65
2023/10/26 01:59:04;;;;;;;92.30;13.45;;;;;;;;;;1036633;28;20072;-64
2023/10/26 01:59:34;;;;;;;73.88;13.77;;;;;;;;;;1035037;28;20072;-64
2023/10/26 02:00:06;;;;;;;35.70;12.82;;;;;;;;;;1036101;28;20055;-65
2023/10/26 02:00:36;;;;;;;68.40;14.32;;;;;;;;;;1036879;28;20049;-65
2023/10/26 02:01:07;;;;;;;28.73;13.68;;;;;;;;;;1036771;28;20064;-64
2023/10/26 02:01:37;;;;;;;28.73;13.85;;;;;;;;;;1037063;28;20057;-65
2023/10/26 02:02:08;;;;;;;47.05;13.85;;;;;;;;;;1036708;28;20115;-65
2023/10/26 02:02:38;;;;;;;62.65;14.75;;;;;;;;;;1035845;28;20107;-64
2023/10/26 02:03:09;;;;;;;38.90;14.48;;;;;;;;;;1037716;28;20428;-65
2023/10/26 02:03:39;;;;;;;31.10;14.45;;;;;;;;;;1035727;28;20049;-64
2023/10/26 02:04:10;;;;;;;32.78;14.35;;;;;;;;;;1037668;28;20053;-64
2023/10/26 02:04:40;;;;;;;70.53;15.18;;;;;;;;;;1036207;28;20041;-65
2023/10/26 02:05:11;;;;;;;52.47;14.68;;;;;;;;;;1037233;28;20080;-66
2023/10/26 02:05:42;;;;;;;26.42;15.10;;;;;;;;;;1035083;28;20785;-65
2023/10/26 02:06:14;;;;;;;54.25;15.98;;;;;;;;;;1036830;28;20099;-64
2023/10/26 02:06:45;;;;;;;41.22;14.27;;;;;;;;;;1035047;28;20763;-66
2023/10/26 02:07:15;;;;;;;38.25;15.30;;;;;;;;;;1037776;28;20437;-65
2023/10/26 02:07:46;;;;;;;36.10;14.57;;;;;;;;;;1036262;28;20183;-65
2023/10/26 02:08:16;;;;;;;50.47;15.65;;;;;;;;;;1037139;28;20053;-64
2023/10/26 02:08:47;;;;;;;52.72;16.95;;;;;;;;;;1036568;28;20056;-64
2023/10/26 02:09:17;;;;;;;35.35;15.02;;;;;;;;;;1034391;28;20049;-65
2023/10/26 02:09:48;;;;;;;54.97;15.90;;;;;;;;;;1035789;28;20063;-65
2023/10/26 02:10:19;;;;;;;47.58;14.95;;;;;;;;;;1037083;28;20492;-65
2023/10/26 02:10:49;;;;;;;50.58;15.07;;;;;;;;;;1035540;28;20053;-64
2023/10/26 02:11:20;;;;;;;60.90;14.13;;;;;;;;;;1036257;28;20049;-64
2023/10/26 02:11:50;;;;;;;62.03;14.18;;;;;;;;;;1035720;28;20045;-65
2023/10/26 02:12:21;;;;;;;74.78;14.10;;;;;;;;;;1037186;28;20045;-65
2023/10/26 02:12:51;;;;;;;113.15;14.93;;;;;;;;;;1036482;28;20057;-64
2023/10/26 02:13:22;;;;;;;79.05;14.68;;;;;;;;;;1036802;28;20505;-65
2023/10/26 02:13:52;;;;;;;37.63;14.40;;;;;;;;;;1036364;28;20103;-64
2023/10/26 02:14:23;;;;;;;47.90;13.68;;;;;;;;;;1036448;28;20069;-65
2023/10/26 02:14:53;;;;;;;54.80;14.15;;;;;;;;;;1036365;28;20110;-64
2023/10/26 02:15:24;;;;;;;51.38;14.88;;;;;;;;;;1035715;28;20088;-64
2023/10/26 02:15:54;;;;;;;77.20;14.63;;;;;;;;;;1035918;28;20041;-64
2023/10/26 02:16:25;;;;;;;83.82;14.35;;;;;;;;;;1037797;28;20126;-65
2023/10/26 02:16:55;;;;;;;76.38;14.50;;;;;;;;;;1036265;28;20127;-66
2023/10/26 02:17:26;;;;;;;57.85;15.68;;;;;;;;;;1036050;28;20469;-65
2023/10/26 02:17:56;;;;;;;83.07;14.02;;;;;;;;;;1036082;28;20395;-65
2023/10/26 02:18:28;;;;;;;56.20;13.57;;;;;;;;;;1037500;28;20053;-65
2023/10/26 02:18:58;;;;;;;77.78;14.10;;;;;;;;;;1035447;28;20099;-64
2023/10/26 02:19:29;;;;;;;53.58;12.85;;;;;;;;;;1036654;28;20122;-65
2023/10/26 02:19:59;;;;;;;61.53;13.57;;;;;;;;;;1037012;28;20061;-65
2023/10/26 02:20:30;;;;;;;86.38;12.70;;;;;;;;;;1037631;28;20044;-64
2023/10/26 02:21:01;;;;;;;102.57;14.00;;;;;;;;;;1036348;28;20051;-65
2023/10/26 02:21:32;;;;;;;55.20;12.98;;;;;;;;;;1036505;28;20433;-65
2023/10/26 02:22:02;;;;;;;62.65;12.68;;;;;;;;;;1035905;28;20517;-65
2023/10/26 02:22:33;;;;;;;49.72;12.35;;;;;;;;;;1037346;28;20136;-64
2023/10/26 02:23:04;;;;;;;55.40;12.27;;;;;;;;;;1036558;28;20482;-64
2023/10/26 02:23:35;;;;;;;43.60;11.85;;;;;;;;;;1037028;28;20053;-64
2023/10/26 02:24:06;;;;;;;55.90;12.05;;;;;;;;;;1036044;28;20080;-65
2023/10/26 02:24:37;;;;;;;35.55;11.48;;;;;;;;;;1036279;28;20049;-64
2023/10/26 02:25:07;;;;;;;28.60;11.45;;;;;;;;;;1036730;28;20065;-64
2023/10/26 02:25:38;;;;;;;37.03;12.35;;;;;;;;;;1035734;28;20046;-65
2023/10/26 02:26:08;;;;;;;37.75;11.68;;;;;;;;;;1035604;28;20136;-64
2023/10/26 02:26:39;;;;;;;29.02;11.98;;;;;;;;;;1035841;28;20417;-63
2023/10/26 02:27:11;;;;;;;48.25;12.35;;;;;;;;;;1037444;28;20052;-64
2023/10/26 02:27:41;;;;;;;27.25;12.20;;;;;;;;;;1036485;28;20056;-64
2023/10/26 02:28:15;;;;;;;22.73;11.65;;;;;;;;;;1036065;28;20115;-64
2023/10/26 02:28:46;;;;;;;23.73;12.13;;;;;;;;;;1034321;28;20049;-65
2023/10/26 02:29:16;;;;;;;17.65;11.35;;;;;;;;;;1036563;28;20054;-63
2023/10/26 02:29:47;;;;;;;18.13;12.23;;;;;;;;;;1035494;28;20045;-65
2023/10/26 02:30:17;;;;;;;21.40;10.77;;;;;;;;;;1036501;28;23764;-65
2023/10/26 02:30:48;;;;;;;17.42;11.85;;;;;;;;;;1036052;28;20045;-65
2023/10/26 02:31:18;;;;;;;17.63;11.35;;;;;;;;;;1037532;28;20711;-65
2023/10/26 02:31:49;;;;;;;18.73;12.45;;;;;;;;;;1035809;28;20054;-65
2023/10/26 02:32:20;;;;;;;22.42;12.48;;;;;;;;;;1037278;28;20057;-65
2023/10/26 02:32:51;;;;;;;23.17;13.32;;;;;;;;;;1035886;28;20103;-65
2023/10/26 02:33:21;;;;;;;17.55;12.77;;;;;;;;;;1037709;28;20053;-66
2023/10/26 02:33:52;;;;;;;22.45;13.38;;;;;;;;;;1036120;28;20075;-65
2023/10/26 02:34:22;;;;;;;20.77;12.50;;;;;;;;;;1037262;28;20378;-65
2023/10/26 02:34:53;;;;;;;22.52;12.88;;;;;;;;;;1035294;28;20079;-64
2023/10/26 02:35:23;;;;;;;23.20;13.35;;;;;;;;;;1035642;28;20061;-64
2023/10/26 02:35:53;;;;;;;22.83;13.52;;;;;;;;;;1037550;28;20053;-65
2023/10/26 02:36:24;;;;;;;21.58;13.95;;;;;;;;;;1037061;28;20482;-65
2023/10/26 02:36:57;;;;;;;22.63;14.45;;;;;;;;;;1036506;28;20502;-65
2023/10/26 02:37:27;;;;;;;24.42;15.00;;;;;;;;;;1035838;28;20131;-64
2023/10/26 02:37:58;;;;;;;24.35;15.15;;;;;;;;;;1037175;28;20099;-64
2023/10/26 02:38:28;;;;;;;26.60;14.40;;;;;;;;;;1036170;28;20057;-65
2023/10/26 02:38:59;;;;;;;24.42;14.88;;;;;;;;;;1036579;28;20049;-64
2023/10/26 02:39:29;;;;;;;25.27;14.98;;;;;;;;;;1034568;28;20131;-64
2023/10/26 02:40:00;;;;;;;24.42;14.70;;;;;;;;;;1037287;28;20049;-64
2023/10/26 02:40:30;;;;;;;23.50;15.30;;;;;;;;;;1035689;28;20046;-65
2023/10/26 02:41:03;;;;;;;27.52;14.27;;;;;;;;;;1035031;28;20042;-64
2023/10/26 02:41:34;;;;;;;27.17;14.73;;;;;;;;;;1036437;28;20045;-64
2023/10/26 02:42:04;;;;;;;23.70;14.48;;;;;;;;;;1037003;28;20049;-64
2023/10/26 02:42:35;;;;;;;23.60;14.90;;;;;;;;;;1034632;28;20165;-65
2023/10/26 02:43:06;;;;;;;22.05;13.55;;;;;;;;;;1037389;28;20053;-64
2023/10/26 02:43:37;;;;;;;23.67;13.88;;;;;;;;;;1035317;28;20143;-65
2023/10/26 02:44:07;;;;;;;23.98;15.18;;;;;;;;;;1036193;28;20135;-64
2023/10/26 02:44:38;;;;;;;26.73;14.82;;;;;;;;;;1034858;28;20066;-65
2023/10/26 02:45:09;;;;;;;22.15;14.88;;;;;;;;;;1036059;28;20194;-63
2023/10/26 02:45:40;;;;;;;25.98;15.50;;;;;;;;;;1035126;28;20045;-65
2023/10/26 02:46:11;;;;;;;23.70;14.50;;;;;;;;;;1037961;28;20508;-64
2023/10/26 02:46:41;;;;;;;27.27;15.50;;;;;;;;;;1035806;28;20520;-65
2023/10/26 02:47:12;;;;;;;25.27;15.10;;;;;;;;;;1034890;28;20163;-64
2023/10/26 02:47:42;;;;;;;26.33;16.45;;;;;;;;;;1036125;28;20654;-65
2023/10/26 02:48:13;;;;;;;27.83;16.42;;;;;;;;;;1036732;28;20045;-64
2023/10/26 02:48:43;;;;;;;26.38;16.13;;;;;;;;;;1037022;28;20407;-64
2023/10/26 02:49:14;;;;;;;27.25;16.70;;;;;;;;;;1034789;28;20049;-65
2023/10/26 02:49:44;;;;;;;25.30;15.77;;;;;;;;;;1036909;28;20065;-65
2023/10/26 02:50:15;;;;;;;25.77;16.92;;;;;;;;;;1035892;28;20517;-64
2023/10/26 02:50:45;;;;;;;26.63;16.27;;;;;;;;;;1037079;28;20049;-65
2023/10/26 02:51:16;;;;;;;26.92;16.50;;;;;;;;;;1036991;28;20049;-65
2023/10/26 02:51:46;;;;;;;28.38;16.27;;;;;;;;;;1035919;28;20053;-65
2023/10/26 02:52:17;;;;;;;25.70;16.35;;;;;;;;;;1035763;28;20063;-65
2023/10/26 02:52:47;;;;;;;27.60;16.92;;;;;;;;;;1036290;28;20128;-64
2023/10/26 02:53:18;;;;;;;24.33;15.13;;;;;;;;;;1036903;28;20096;-65
2023/10/26 02:53:48;;;;;;;31.88;16.98;;;;;;;;;;1035753;28;20674;-64
2023/10/26 02:54:19;;;;;;;28.15;15.65;;;;;;;;;;1035938;28;20077;-66
2023/10/26 02:54:49;;;;;;;25.77;15.75;;;;;;;;;;1036831;28;20054;-65
2023/10/26 02:55:20;;;;;;;27.25;15.27;;;;;;;;;;1036098;28;20810;-64
2023/10/26 02:55:50;;;;;;;29.02;16.98;;;;;;;;;;1035610;28;20563;-64
2023/10/26 02:56:21;;;;;;;27.63;17.33;;;;;;;;;;1035790;28;20477;-64
2023/10/26 02:56:52;;;;;;;27.63;16.38;;;;;;;;;;1036261;28;20053;-64
2023/10/26 02:57:22;;;;;;;27.88;16.45;;;;;;;;;;1037046;28;20136;-64
2023/10/26 02:57:53;;;;;;;26.42;16.20;;;;;;;;;;1035855;28;20049;-65
2023/10/26 02:58:23;;;;;;;29.95;16.80;;;;;;;;;;1036863;28;20053;-65
2023/10/26 02:58:54;;;;;;;26.88;16.30;;;;;;;;;;1036043;28;20054;-65
2023/10/26 02:59:24;;;;;;;26.92;16.58;;;;;;;;;;1036034;28;20456;-64
2023/10/26 02:59:55;;;;;;;30.10;16.38;;;;;;;;;;1036253;28;20056;-65